Time;durP1;ratioP1;P1;durP2;ratioP2;P2;SDS_P1;SDS_P2;PMS_P1;PMS_P2;Temp;Humidity;BMP_temperature;BMP_pressure;BME280_temperature;BME280_humidity;BME280_pressure;Samples;Min_cycle;Max_cycle;Signal;HPM_P1;HPM_P2
2020/12/05 00:01:06;;;;;;;23.45;11.80;;;21.70;53.60;;;;;;5197530;28;20536;-72
2020/12/05 00:03:38;;;;;;;23.25;11.40;;;21.70;53.60;;;;;;5198453;28;20133;-72
2020/12/05 00:06:10;;;;;;;27.27;12.00;;;21.70;53.60;;;;;;5198541;28;20528;-72
2020/12/05 00:08:42;;;;;;;25.10;11.90;;;21.70;53.60;;;;;;5186954;28;20413;-72
2020/12/05 00:11:14;;;;;;;23.77;12.38;;;21.70;53.60;;;;;;5176651;28;20501;-73
2020/12/05 00:13:46;;;;;;;27.10;12.15;;;21.70;53.60;;;;;;5178325;28;20046;-73
2020/12/05 00:16:18;;;;;;;27.67;11.52;;;21.60;53.60;;;;;;5173929;28;20061;-73
2020/12/05 00:18:54;;;;;;;32.75;12.90;;;21.70;53.70;;;;;;5165717;28;20041;-73
2020/12/05 00:21:27;;;;;;;23.77;10.32;;;21.70;53.70;;;;;;5177019;28;20046;-73
2020/12/05 00:24:00;;;;;;;24.47;11.40;;;21.70;53.70;;;;;;5181583;28;20519;-74
2020/12/05 00:26:32;;;;;;;25.00;10.40;;;21.70;53.70;;;;;;5174690;28;20304;-74
2020/12/05 00:29:04;;;;;;;28.95;10.88;;;21.70;53.70;;;;;;5171239;28;20053;-74
2020/12/05 00:31:36;;;;;;;21.58;11.00;;;21.70;53.70;;;;;;5178945;28;20049;-73
2020/12/05 00:34:08;;;;;;;31.05;10.00;;;21.70;53.70;;;;;;5175549;28;20539;-73
2020/12/05 00:36:40;;;;;;;21.83;10.40;;;21.70;53.70;;;;;;5179082;28;20046;-73
2020/12/05 00:39:12;;;;;;;23.55;10.32;;;21.70;53.70;;;;;;5178279;28;20056;-73
2020/12/05 00:41:44;;;;;;;21.90;10.32;;;21.70;53.70;;;;;;5158403;28;20408;-73
2020/12/05 00:44:17;;;;;;;22.98;10.00;;;21.70;53.70;;;;;;5166270;28;20061;-73
2020/12/05 00:46:49;;;;;;;18.80;8.98;;;21.70;53.70;;;;;;5177048;28;20488;-73
2020/12/05 00:49:22;;;;;;;23.67;9.63;;;21.60;53.60;;;;;;5160563;28;20053;-73
2020/12/05 00:51:54;;;;;;;24.70;8.95;;;21.70;53.70;;;;;;5157341;28;20547;-72
2020/12/05 00:54:26;;;;;;;19.27;9.32;;;21.70;53.60;;;;;;5177757;28;20062;-72
2020/12/05 00:57:01;;;;;;;18.58;8.48;;;21.70;53.60;;;;;;5181766;28;20501;-72
2020/12/05 00:59:33;;;;;;;20.48;9.80;;;21.70;53.60;;;;;;5183817;28;20421;-73
2020/12/05 01:02:05;;;;;;;24.83;9.60;;;21.70;53.60;;;;;;5152918;28;20061;-72
2020/12/05 01:04:37;;;;;;;18.92;9.48;;;21.70;53.60;;;;;;5176182;28;20072;-74
2020/12/05 01:07:09;;;;;;;21.85;9.75;;;21.70;54.30;;;;;;5173285;28;20042;-73
2020/12/05 01:09:41;;;;;;;19.92;8.82;;;21.70;53.60;;;;;;5164082;28;20046;-73
2020/12/05 01:12:13;;;;;;;16.23;8.75;;;21.60;53.50;;;;;;5172480;28;20042;-74
2020/12/05 01:14:45;;;;;;;15.10;8.27;;;21.70;53.60;;;;;;5175814;28;20038;-73
2020/12/05 01:17:23;;;;;;;14.95;8.10;;;21.60;53.50;;;;;;5177620;28;20080;-73
2020/12/05 01:19:56;;;;;;;17.08;8.20;;;21.70;53.60;;;;;;5151204;28;20045;-73
2020/12/05 01:22:28;;;;;;;22.33;8.95;;;21.60;53.60;;;;;;5174427;28;20058;-73
2020/12/05 01:25:01;;;;;;;16.55;8.48;;;21.60;53.60;;;;;;5176963;28;20046;-73
2020/12/05 01:27:34;;;;;;;16.10;8.73;;;21.70;53.60;;;;;;5173946;28;20050;-73
2020/12/05 01:30:07;;;;;;;15.63;8.55;;;21.70;53.70;;;;;;5175526;28;20065;-73
2020/12/05 01:32:39;;;;;;;16.58;7.30;;;21.70;53.70;;;;;;5172551;28;20555;-73
2020/12/05 01:35:11;;;;;;;14.10;7.90;;;21.60;53.60;;;;;;5176990;28;20738;-74
2020/12/05 01:37:43;;;;;;;28.42;8.23;;;21.60;53.70;;;;;;5177308;28;20086;-74
2020/12/05 01:40:15;;;;;;;16.40;7.95;;;21.60;53.70;;;;;;5175050;28;20049;-74
2020/12/05 01:42:51;;;;;;;24.55;7.90;;;21.60;53.90;;;;;;5173377;28;20064;-73
2020/12/05 01:45:23;;;;;;;20.38;7.47;;;21.60;53.90;;;;;;5176363;28;20417;-73
2020/12/05 01:47:56;;;;;;;18.07;7.53;;;21.60;53.80;;;;;;5176781;28;20525;-73
2020/12/05 01:50:28;;;;;;;16.75;7.43;;;21.70;53.90;;;;;;5158494;28;20401;-73
2020/12/05 01:53:06;;;;;;;25.30;8.23;;;21.70;53.90;;;;;;5159840;28;20056;-73
2020/12/05 01:55:44;;;;;;;21.38;8.10;;;21.70;53.80;;;;;;5176284;28;20049;-73
2020/12/05 01:58:17;;;;;;;20.33;7.60;;;21.70;53.90;;;;;;5177305;28;20065;-72
2020/12/05 02:00:49;;;;;;;26.83;8.03;;;21.70;53.90;;;;;;5173766;28;20061;-73
2020/12/05 02:03:21;;;;;;;25.90;8.20;;;21.70;54.00;;;;;;5175848;28;20056;-73
2020/12/05 02:06:08;;;;;;;24.08;8.02;;;21.60;54.00;;;;;;5157051;28;20417;-73
2020/12/05 02:09:07;;;;;;;20.80;7.50;;;21.70;54.00;;;;;;5166219;28;20056;-74
2020/12/05 02:11:41;;;;;;;16.35;7.40;;;21.60;53.90;;;;;;5196280;28;20057;-73
2020/12/05 02:14:15;;;;;;;18.60;7.20;;;21.60;53.90;;;;;;5172836;28;20054;-73
2020/12/05 02:16:50;;;;;;;20.27;7.65;;;21.60;53.90;;;;;;5174440;28;20050;-74
2020/12/05 02:19:23;;;;;;;18.35;6.78;;;21.60;53.80;;;;;;5177965;28;20049;-74
2020/12/05 02:21:56;;;;;;;21.52;8.10;;;21.60;53.90;;;;;;5179508;28;20050;-74
2020/12/05 02:24:29;;;;;;;17.80;6.45;;;21.60;53.90;;;;;;5178747;28;20053;-73
2020/12/05 02:27:02;;;;;;;18.63;7.57;;;21.60;53.90;;;;;;5181703;28;20046;-74
2020/12/05 02:29:36;;;;;;;14.32;7.13;;;21.60;53.80;;;;;;5191185;28;20053;-74
2020/12/05 02:32:08;;;;;;;;;;;21.60;53.80;;;;;;5196318;28;20116;-73
2020/12/05 02:34:40;;;;;;;15.65;6.18;;;21.60;54.40;;;;;;5197265;28;19926;-73
2020/12/05 02:37:13;;;;;;;13.80;5.93;;;21.60;53.80;;;;;;5194142;28;20060;-73
2020/12/05 02:39:45;;;;;;;15.90;6.50;;;21.60;53.80;;;;;;5180103;28;20460;-73
2020/12/05 02:42:17;;;;;;;11.63;6.40;;;21.60;53.80;;;;;;5175776;28;20407;-73
2020/12/05 02:44:52;;;;;;;12.00;5.65;;;21.60;53.80;;;;;;5165484;28;20400;-73
2020/12/05 02:47:24;;;;;;;17.27;6.00;;;21.70;53.80;;;;;;5198127;28;20381;-73
2020/12/05 02:49:56;;;;;;;10.38;5.57;;;21.60;53.70;;;;;;5199506;28;20424;-73
2020/12/05 02:52:28;;;;;;;11.18;6.53;;;21.60;53.70;;;;;;5194943;28;20052;-72
2020/12/05 02:55:00;;;;;;;12.52;6.28;;;21.60;53.60;;;;;;5200136;28;20045;-73
2020/12/05 02:57:32;;;;;;;12.55;5.65;;;21.60;53.70;;;;;;5199210;28;20428;-72
2020/12/05 03:00:05;;;;;;;13.43;5.55;;;21.60;53.70;;;;;;5187363;28;20057;-72
2020/12/05 03:02:37;;;;;;;12.43;5.97;;;21.60;53.60;;;;;;5192963;28;20049;-72
2020/12/05 03:05:09;;;;;;;17.50;5.60;;;21.60;53.60;;;;;;5199879;28;20084;-73
2020/12/05 03:07:41;;;;;;;16.23;5.90;;;21.60;53.50;;;;;;5193158;28;20274;-73
2020/12/05 03:10:14;;;;;;;14.73;6.22;;;21.60;53.60;;;;;;5178353;28;21671;-72
2020/12/05 03:12:46;;;;;;;13.68;6.18;;;21.70;53.70;;;;;;5180229;28;20062;-72
2020/12/05 03:15:18;;;;;;;11.15;5.30;;;21.60;53.70;;;;;;5175592;28;20076;-72
2020/12/05 03:17:50;;;;;;;14.27;5.40;;;21.60;53.70;;;;;;5170896;28;20049;-73
2020/12/05 03:20:22;;;;;;;16.50;5.97;;;21.60;53.60;;;;;;5178208;28;20536;-73
2020/12/05 03:22:54;;;;;;;12.23;5.75;;;21.70;53.70;;;;;;5179788;28;20429;-73
2020/12/05 03:25:26;;;;;;;10.65;5.10;;;21.60;53.60;;;;;;5179854;28;20050;-73
2020/12/05 03:27:59;;;;;;;10.43;5.03;;;21.60;53.60;;;;;;5177516;28;20046;-72
2020/12/05 03:30:31;;;;;;;11.30;5.25;;;21.70;53.70;;;;;;5152728;28;20476;-72
2020/12/05 03:33:04;;;;;;;11.77;5.68;;;21.60;53.70;;;;;;5178499;28;20061;-72
2020/12/05 03:35:36;;;;;;;10.32;4.95;;;21.70;53.80;;;;;;5179681;28;20444;-72
2020/12/05 03:38:08;;;;;;;10.30;4.78;;;21.70;53.80;;;;;;5177109;28;20065;-73
2020/12/05 03:40:41;;;;;;;10.77;5.85;;;21.70;53.80;;;;;;5183066;28;20053;-73
2020/12/05 03:43:13;;;;;;;9.80;4.90;;;21.70;53.70;;;;;;5177544;28;20058;-72
2020/12/05 03:45:45;;;;;;;10.63;5.20;;;21.70;53.70;;;;;;5176572;28;20062;-73
2020/12/05 03:48:17;;;;;;;14.93;4.80;;;21.60;53.60;;;;;;5170754;28;20386;-72
2020/12/05 03:50:49;;;;;;;11.43;4.72;;;21.70;53.70;;;;;;5177779;28;20386;-73
2020/12/05 03:53:21;;;;;;;16.70;5.57;;;21.70;53.70;;;;;;5183454;28;20050;-73
2020/12/05 03:55:54;;;;;;;15.32;5.13;;;21.70;53.70;;;;;;5176520;28;20501;-73
2020/12/05 03:58:26;;;;;;;18.60;5.45;;;21.70;53.70;;;;;;5171715;28;20057;-73
2020/12/05 04:00:58;;;;;;;10.63;4.75;;;21.70;53.70;;;;;;5175580;28;20520;-72
2020/12/05 04:03:30;;;;;;;11.65;5.05;;;21.70;53.70;;;;;;5178008;28;20057;-72
2020/12/05 04:06:02;;;;;;;14.88;5.65;;;21.60;53.70;;;;;;5182204;28;20454;-72
2020/12/05 04:08:34;;;;;;;14.10;5.82;;;21.70;53.80;;;;;;5177152;28;20050;-73
2020/12/05 04:11:07;;;;;;;9.70;4.78;;;21.60;53.70;;;;;;5194046;28;20057;-73
2020/12/05 04:13:39;;;;;;;11.93;5.55;;;21.70;53.70;;;;;;5197141;28;20046;-73
2020/12/05 04:16:11;;;;;;;10.52;4.88;;;21.70;53.80;;;;;;5190304;28;20052;-73
2020/12/05 04:18:43;;;;;;;12.27;5.22;;;21.60;54.30;;;;;;5192973;28;20061;-73
2020/12/05 04:21:15;;;;;;;16.13;5.18;;;21.60;54.30;;;;;;5194184;28;20049;-73
2020/12/05 04:23:47;;;;;;;14.52;5.20;;;21.70;53.80;;;;;;5199415;28;20423;-74
2020/12/05 04:26:21;;;;;;;14.68;5.22;;;21.70;53.80;;;;;;5198282;28;20057;-73
2020/12/05 04:28:53;;;;;;;9.50;4.95;;;21.60;53.70;;;;;;5198483;28;20385;-73
2020/12/05 04:31:25;;;;;;;14.68;5.43;;;21.60;53.60;;;;;;5178006;28;20046;-74
2020/12/05 04:33:57;;;;;;;18.63;5.30;;;21.60;53.70;;;;;;5199426;28;20405;-74
2020/12/05 04:36:29;;;;;;;12.85;5.18;;;21.60;53.70;;;;;;5194712;28;20057;-74
2020/12/05 04:39:01;;;;;;;15.90;5.60;;;21.60;53.80;;;;;;5199059;28;20053;-74
2020/12/05 04:41:33;;;;;;;15.00;5.45;;;21.60;53.70;;;;;;5197122;28;20049;-73
2020/12/05 04:44:05;;;;;;;30.77;5.40;;;21.60;53.70;;;;;;5195212;28;20045;-73
2020/12/05 04:46:37;;;;;;;12.52;4.75;;;21.60;53.70;;;;;;5197317;28;20060;-73
2020/12/05 04:49:09;;;;;;;11.38;5.65;;;21.60;53.70;;;;;;5188711;28;20432;-73
2020/12/05 04:51:46;;;;;;;10.88;5.10;;;21.60;53.70;;;;;;5179184;28;20492;-73
2020/12/05 04:54:25;;;;;;;10.32;4.75;;;21.60;53.70;;;;;;5198282;28;20801;-73
2020/12/05 04:56:59;;;;;;;15.93;5.15;;;21.60;53.70;;;;;;5170057;28;20056;-73
2020/12/05 04:59:32;;;;;;;10.23;5.22;;;21.60;53.60;;;;;;5171325;28;20053;-73
2020/12/05 05:02:09;;;;;;;7.95;4.90;;;21.60;53.60;;;;;;5183677;28;20529;-72
2020/12/05 05:04:41;;;;;;;9.60;4.68;;;21.70;53.60;;;;;;5187446;28;20050;-73
2020/12/05 05:07:15;;;;;;;9.82;4.80;;;21.60;54.30;;;;;;5187194;28;20512;-73
2020/12/05 05:09:51;;;;;;;9.30;4.45;;;21.60;53.50;;;;;;5168700;28;20049;-73
2020/12/05 05:12:29;;;;;;;11.52;5.50;;;21.60;53.60;;;;;;5178737;28;20068;-73
2020/12/05 05:15:17;;;;;;;13.80;5.20;;;21.60;53.50;;;;;;5163483;28;20413;-74
2020/12/05 05:17:49;;;;;;;7.95;4.70;;;21.60;53.60;;;;;;5173008;28;20072;-73
2020/12/05 05:20:21;;;;;;;9.18;4.53;;;21.60;53.70;;;;;;5180935;28;20057;-73
2020/12/05 05:23:22;;;;;;;10.95;4.63;;;21.60;53.70;;;;;;5174410;28;20042;-73
2020/12/05 05:25:58;;;;;;;11.77;4.65;;;21.60;53.70;;;;;;5160029;28;20061;-73
2020/12/05 05:28:40;;;;;;;13.50;5.00;;;21.60;53.80;;;;;;5175952;28;20396;-73
2020/12/05 05:33:46;;;;;;;13.18;5.55;;;21.60;54.00;;;;;;5160308;28;20409;-73
2020/12/05 05:36:24;;;;;;;10.73;4.32;;;21.60;54.00;;;;;;5158163;28;20049;-73
2020/12/05 05:39:05;;;;;;;14.82;5.32;;;21.60;54.00;;;;;;5134305;28;20420;-73
2020/12/05 05:41:39;;;;;;;14.48;5.25;;;21.60;54.10;;;;;;5155392;28;20062;-72
2020/12/05 05:44:13;;;;;;;12.05;4.40;;;21.60;54.20;;;;;;5154469;28;20066;-73
2020/12/05 05:46:48;;;;;;;13.10;5.30;;;21.60;54.20;;;;;;5139515;28;20054;-73
2020/12/05 05:49:31;;;;;;;13.95;5.18;;;21.60;54.20;;;;;;5155015;28;20042;-73
2020/12/05 05:52:04;;;;;;;14.88;5.15;;;21.60;54.30;;;;;;5156541;28;20061;-73
2020/12/05 05:54:37;;;;;;;17.50;5.57;;;21.60;54.40;;;;;;5153491;28;20046;-73
2020/12/05 05:57:15;;;;;;;19.27;5.85;;;21.60;54.40;;;;;;5136666;28;20057;-73
2020/12/05 05:59:47;;;;;;;15.98;4.75;;;21.60;54.40;;;;;;5153678;28;20546;-73
2020/12/05 06:02:21;;;;;;;19.67;6.47;;;21.60;54.50;;;;;;5156335;28;20705;-73
2020/12/05 06:04:53;;;;;;;17.05;5.97;;;21.60;54.40;;;;;;5155045;28;20050;-73
2020/12/05 06:07:26;;;;;;;22.55;5.50;;;21.60;54.50;;;;;;5163541;28;20052;-73
2020/12/05 06:09:58;;;;;;;20.42;5.63;;;21.60;54.60;;;;;;5158630;28;20050;-74
2020/12/05 06:12:35;;;;;;;22.60;6.15;;;21.60;54.60;;;;;;5158286;28;20420;-73
2020/12/05 06:15:10;;;;;;;13.95;5.05;;;21.60;54.60;;;;;;5158874;28;20405;-73
2020/12/05 06:17:43;;;;;;;17.67;6.25;;;21.60;54.60;;;;;;5147245;28;20057;-73
2020/12/05 06:20:16;;;;;;;20.23;5.87;;;21.60;54.70;;;;;;5147195;28;20326;-72
2020/12/05 06:22:50;;;;;;;16.70;5.82;;;21.60;54.60;;;;;;5133968;28;20444;-73
2020/12/05 06:25:22;;;;;;;15.40;4.95;;;21.60;54.60;;;;;;5151745;28;20053;-72
2020/12/05 06:28:02;;;;;;;17.77;5.93;;;21.60;54.80;;;;;;5148147;28;20408;-70
2020/12/05 06:30:34;;;;;;;20.08;6.18;;;21.60;54.80;;;;;;5146093;28;20037;-70
2020/12/05 06:33:06;;;;;;;25.00;5.57;;;21.60;54.90;;;;;;5162187;28;20057;-70
2020/12/05 06:35:38;;;;;;;28.13;6.20;;;21.60;54.90;;;;;;5160665;28;20124;-70
2020/12/05 06:38:15;;;;;;;20.17;5.45;;;21.60;54.90;;;;;;5165082;28;20060;-70
2020/12/05 06:40:47;;;;;;;25.08;6.50;;;21.60;55.00;;;;;;5165815;28;20658;-71
2020/12/05 06:43:21;;;;;;;29.40;5.93;;;21.60;55.00;;;;;;5164041;28;20427;-70
2020/12/05 06:45:53;;;;;;;26.42;6.28;;;21.60;55.00;;;;;;5164909;28;20045;-70
2020/12/05 06:48:32;;;;;;;30.20;6.80;;;21.60;55.20;;;;;;5140806;28;20505;-70
2020/12/05 06:51:04;;;;;;;24.52;6.05;;;21.60;55.40;;;;;;5162379;28;20485;-70
2020/12/05 06:53:36;;;;;;;28.10;7.28;;;21.60;55.20;;;;;;5154541;28;20436;-70
2020/12/05 06:56:16;;;;;;;39.10;7.18;;;21.60;55.10;;;;;;5157006;28;20057;-72
2020/12/05 06:58:56;;;;;;;38.03;7.30;;;21.70;54.80;;;;;;5152056;28;20815;-71
2020/12/05 07:01:29;;;;;;;36.50;7.50;;;21.60;54.60;;;;;;5152099;28;20507;-72
2020/12/05 07:04:20;;;;;;;;;;;21.60;54.50;;;;;;5166702;28;20050;-71
2020/12/05 07:06:52;;;;;;;20.75;6.68;;;21.60;54.50;;;;;;5141008;28;20392;-71
2020/12/05 07:09:44;;;;;;;25.27;6.82;;;21.60;54.40;;;;;;5151513;28;20782;-71
2020/12/05 07:12:19;;;;;;;19.00;6.00;;;21.60;54.10;;;;;;5173183;28;20516;-71
2020/12/05 07:14:51;;;;;;;32.92;7.65;;;21.60;54.00;;;;;;5168924;28;21567;-71
2020/12/05 07:17:24;;;;;;;18.00;7.47;;;21.60;53.90;;;;;;5162719;28;20542;-71
2020/12/05 07:19:56;;;;;;;16.58;6.60;;;21.60;53.70;;;;;;5171258;28;20061;-71
2020/12/05 07:22:28;;;;;;;15.63;6.70;;;21.60;53.60;;;;;;5172888;28;20053;-71
2020/12/05 07:25:00;;;;;;;23.50;7.13;;;21.60;53.50;;;;;;5173196;28;20045;-71
2020/12/05 07:27:32;;;;;;;21.88;6.20;;;21.60;53.40;;;;;;5172723;28;20061;-71
2020/12/05 07:30:08;;;;;;;21.73;6.97;;;21.70;53.40;;;;;;5166249;28;20048;-71
2020/12/05 07:32:42;;;;;;;12.50;6.20;;;21.60;53.30;;;;;;5161201;28;20749;-72
2020/12/05 07:35:17;;;;;;;20.88;6.43;;;21.70;53.30;;;;;;5178149;28;20064;-71
2020/12/05 07:37:49;;;;;;;21.23;6.72;;;21.60;53.20;;;;;;5179280;28;20080;-71
2020/12/05 07:40:28;;;;;;;16.13;6.60;;;21.70;53.20;;;;;;5181094;28;20057;-70
2020/12/05 07:43:00;;;;;;;15.50;6.38;;;21.70;53.10;;;;;;5196408;28;20049;-73
2020/12/05 07:45:32;;;;;;;19.38;7.00;;;21.60;53.10;;;;;;5196318;28;20053;-72
2020/12/05 07:48:14;;;;;;;32.30;7.55;;;21.60;53.00;;;;;;5196668;28;20058;-71
2020/12/05 07:50:46;;;;;;;21.45;7.85;;;21.70;53.10;;;;;;5172446;28;20048;-72
2020/12/05 20:48:49;;;;;;;18.25;8.23;;;20.10;57.70;;;;;;5181923;27;20513;-66
2020/12/05 20:51:21;;;;;;;10.88;7.38;;;20.50;56.10;;;;;;5178907;28;21847;-66
2020/12/05 20:53:53;;;;;;;17.98;7.60;;;20.80;56.00;;;;;;5168079;28;20057;-66
